createdAt,value
2018-07-10T00:25:50.646Z,5.85
2018-07-10T00:25:50.674Z,6.15
2018-07-10T00:25:50.676Z,6.15
2018-07-10T00:25:50.709Z,6.15
2018-07-10T00:25:50.717Z,6.15
2018-07-10T00:25:50.743Z,6.15
2018-07-10T00:25:50.752Z,6.15
2018-07-10T00:25:50.795Z,6.15
2018-07-10T00:25:50.797Z,6.15
2018-07-10T00:25:50.841Z,6.15
2018-07-10T00:25:50.843Z,6.15
2018-07-10T00:25:50.869Z,6.15
2018-07-10T00:25:50.886Z,6.15
2018-07-10T00:25:50.911Z,6.15
2018-07-10T00:25:50.969Z,6.15
2018-07-10T00:31:45.605Z,6.23
2018-07-10T02:36:00.654Z,7.05
2018-07-10T02:36:00.671Z,7.73
2018-07-10T02:36:00.684Z,7.05
2018-07-10T03:17:25.626Z,7.46
2018-07-10T03:23:20.639Z,7.61
2018-07-10T03:35:10.655Z,8.65
2018-07-10T04:22:30.652Z,8.22
2018-07-10T04:22:30.666Z,8.44
2018-07-10T04:22:30.690Z,8.44
2018-07-10T04:22:30.736Z,8.44
2018-07-10T04:22:30.750Z,8.44
2018-07-10T04:22:30.771Z,8.44
2018-07-10T04:22:30.802Z,8.44
2018-07-10T04:22:30.822Z,8.44
2018-07-10T04:28:25.685Z,8.99
2018-07-10T04:34:20.622Z,9.07
2018-07-10T04:40:15.670Z,8.89
2018-07-10T04:46:10.611Z,7.37
2018-07-10T04:52:05.687Z,7.7
2018-07-10T04:58:00.617Z,8.05
2018-07-10T05:03:55.623Z,9.22
2018-07-10T05:09:50.671Z,10.11
2018-07-10T05:15:45.609Z,10.91
2018-07-10T05:21:40.657Z,9.56
2018-07-10T05:27:35.621Z,7.89
2018-07-10T05:33:30.618Z,8.28
2018-07-10T05:57:10.648Z,11.49
2018-07-10T05:57:10.680Z,12.26
2018-07-10T05:57:10.715Z,12.26
2018-07-10T05:57:10.744Z,12.26
2018-07-10T06:03:05.627Z,13.17
2018-07-10T06:09:00.654Z,11.66
2018-07-10T06:14:57.906Z,12.46
2018-07-10T06:20:50.620Z,11.47
2018-07-10T06:26:45.653Z,11.37
2018-07-10T06:32:40.641Z,10.54
2018-07-10T06:38:35.650Z,12.56
2018-07-10T06:56:20.668Z,10.22
2018-07-10T06:56:20.672Z,10.73
2018-07-10T06:56:20.747Z,10.22
2018-07-10T07:02:15.644Z,11.97
2018-07-10T07:08:10.635Z,9.36
2018-07-10T07:14:05.637Z,8.95
2018-07-10T07:20:00.657Z,8.85
2018-07-10T07:25:55.648Z,8.67
2018-07-10T07:31:50.644Z,6.57
2018-07-10T07:37:45.673Z,6.69
2018-07-10T07:55:30.666Z,6.63
2018-07-10T07:55:30.713Z,6.88
2018-07-10T07:55:30.738Z,6.88
2018-07-10T08:01:25.748Z,7.73
2018-07-10T08:07:25.795Z,6.52
2018-07-10T08:13:15.643Z,7.54
2018-07-10T08:19:10.663Z,7.15
2018-07-10T08:25:05.670Z,7.12
2018-07-10T08:31:00.687Z,6.5
2018-07-10T08:36:55.672Z,6.1
2018-07-10T09:00:35.657Z,5.61
2018-07-10T09:00:35.697Z,4.64
2018-07-10T09:00:35.774Z,4.64
2018-07-10T09:00:35.933Z,4.64
2018-07-10T09:06:30.740Z,5.31
2018-07-10T09:12:25.671Z,5.44
2018-07-10T09:18:20.653Z,5.91
2018-07-10T09:24:15.762Z,5.82
2018-07-10T09:30:10.654Z,5.16
2018-07-10T09:36:05.646Z,4.92
2018-07-10T09:42:00.665Z,5.47
2018-07-10T09:47:55.711Z,5.07
2018-07-10T09:53:50.697Z,5.17
2018-07-10T09:59:45.660Z,5.16
2018-07-10T10:05:40.675Z,5.07
2018-07-10T10:11:35.667Z,5.29
2018-07-10T10:17:30.676Z,4.73
2018-07-10T10:23:25.702Z,5.03
2018-07-10T10:29:20.654Z,5.46
2018-07-10T10:35:15.737Z,4.69
2018-07-10T10:41:10.668Z,4.82
2018-07-10T10:47:05.726Z,5.05
2018-07-10T10:53:00.724Z,5.53
2018-07-10T10:58:55.731Z,5.64
2018-07-10T11:04:50.673Z,5.31
2018-07-10T11:10:45.662Z,5.18
2018-07-10T11:16:40.701Z,5.74
2018-07-10T11:22:35.694Z,5.57
2018-07-10T11:28:30.680Z,5.73
2018-07-10T11:34:25.717Z,5.14
2018-07-10T11:40:20.714Z,4.71
2018-07-10T11:46:15.691Z,5.03
2018-07-10T11:52:10.694Z,4.76
2018-07-10T11:58:05.750Z,4.5
2018-07-10T12:04:00.660Z,5.05
2018-07-10T12:09:55.690Z,4.87
2018-07-10T12:15:50.701Z,5.26
2018-07-10T12:21:45.689Z,4.98
2018-07-10T12:27:40.705Z,5.09
2018-07-10T12:33:35.686Z,6.39
2018-07-10T12:39:30.671Z,6.45
2018-07-10T12:45:25.712Z,6.67
2018-07-10T12:51:20.753Z,6.87
2018-07-10T12:57:15.715Z,7.2
2018-07-10T13:03:10.706Z,6.63
2018-07-10T13:09:05.692Z,6.86
2018-07-10T13:15:00.678Z,13.52
2018-07-10T13:20:55.689Z,7.57
2018-07-10T13:26:50.711Z,6.48
2018-07-10T13:32:45.738Z,6
2018-07-10T13:38:40.697Z,6.63
2018-07-10T13:44:35.683Z,6.94
2018-07-10T13:50:30.709Z,7.47
2018-07-10T13:56:25.735Z,8.51
2018-07-10T14:02:20.709Z,7.88
2018-07-10T14:08:15.723Z,6.16
2018-07-10T14:14:10.710Z,8.71
2018-07-10T14:20:05.848Z,9.77
2018-07-10T14:26:00.708Z,5.68
2018-07-10T14:31:55.719Z,6.04
2018-07-10T14:37:50.693Z,8.02
2018-07-10T14:43:45.739Z,5.41
2018-07-10T14:49:40.720Z,9.54
2018-07-10T14:55:35.716Z,6.88
2018-07-10T15:01:30.742Z,5.78
2018-07-10T15:07:25.713Z,4.77
2018-07-10T15:13:20.736Z,4.34
2018-07-10T15:19:15.737Z,4.84
2018-07-10T15:25:10.980Z,4.4
2018-07-10T15:31:05.737Z,4.23
2018-07-10T15:37:00.786Z,3.66
2018-07-10T15:42:55.721Z,4.26
2018-07-10T15:48:50.754Z,4.68
2018-07-10T15:54:45.752Z,5.07
2018-07-10T16:00:40.935Z,4.47
2018-07-10T16:06:35.764Z,6.99
2018-07-10T16:12:30.745Z,5.81
2018-07-10T16:18:25.759Z,4.84
2018-07-10T16:24:20.731Z,4.96
2018-07-10T16:30:15.732Z,5.21
2018-07-10T16:36:10.736Z,5.9
2018-07-10T16:42:05.759Z,6.17
2018-07-10T16:48:00.768Z,5.95
2018-07-10T16:53:55.715Z,5.82
2018-07-10T16:59:50.771Z,5.57
2018-07-10T17:05:45.780Z,5.32
2018-07-10T17:11:40.721Z,5.17
2018-07-10T17:17:35.738Z,5.54
2018-07-10T17:23:30.744Z,4.94
2018-07-10T17:29:25.731Z,5.48
2018-07-10T17:35:20.744Z,5.87
2018-07-10T17:41:15.733Z,5.78
2018-07-10T17:47:10.738Z,5.4
2018-07-10T17:53:05.739Z,5.69
2018-07-10T17:59:00.736Z,5.3
2018-07-10T18:04:55.764Z,5.41
2018-07-10T18:10:50.765Z,5.23
2018-07-10T18:16:45.795Z,5.5
2018-07-10T18:22:40.792Z,5.69
2018-07-10T18:28:35.798Z,12.03
2018-07-10T18:34:30.759Z,7.28
2018-07-10T18:40:25.819Z,7.36
2018-07-10T18:46:20.782Z,7.1
2018-07-10T18:52:15.747Z,5.98
2018-07-10T18:58:10.848Z,6.53
2018-07-10T19:04:05.771Z,5.93
2018-07-10T19:10:00.768Z,6.68
2018-07-10T19:15:55.838Z,7.68
2018-07-10T19:21:50.791Z,5.96
2018-07-10T19:27:45.862Z,5.68
2018-07-10T19:33:40.813Z,5.54
2018-07-10T19:39:35.859Z,5.98
2018-07-10T19:45:30.757Z,5.55
2018-07-10T19:51:25.755Z,5.95
2018-07-10T19:57:20.761Z,7.22
2018-07-10T20:03:15.761Z,6.3
2018-07-10T20:09:10.749Z,6.62
2018-07-10T20:15:05.742Z,7.97
2018-07-10T20:21:00.751Z,5.94
2018-07-10T20:26:55.756Z,6.22
2018-07-10T20:32:50.817Z,6.13
2018-07-10T20:38:45.759Z,5.63
2018-07-10T20:44:40.828Z,5.58
2018-07-10T20:50:35.771Z,5.82
2018-07-10T20:56:30.788Z,6.1
2018-07-10T21:02:25.763Z,5.81
2018-07-10T21:08:20.778Z,6.79
2018-07-10T21:14:15.812Z,5.93
2018-07-10T21:20:10.749Z,6.37
2018-07-10T21:26:05.804Z,8.41
2018-07-10T21:32:00.766Z,6.86
2018-07-10T21:37:55.786Z,6.46
2018-07-10T21:43:50.810Z,6.82
2018-07-10T21:49:45.791Z,6.6
2018-07-10T21:55:40.783Z,6.73
2018-07-10T22:01:35.775Z,7.12
2018-07-10T22:07:30.834Z,6.72
2018-07-10T22:13:25.786Z,6.73
2018-07-10T22:19:20.780Z,6.92
2018-07-10T22:25:15.776Z,7.85
2018-07-10T22:31:10.788Z,6.66
2018-07-10T22:37:05.812Z,6.57
2018-07-10T22:43:00.769Z,7.01
2018-07-10T22:48:55.769Z,7.9
2018-07-10T22:54:50.792Z,7.09
2018-07-10T23:00:46.098Z,6.94
2018-07-10T23:06:40.767Z,7.59
2018-07-10T23:12:35.779Z,7.11
2018-07-10T23:18:30.783Z,8.03
2018-07-10T23:24:25.798Z,7.81
2018-07-10T23:30:20.803Z,11.29
2018-07-10T23:36:15.827Z,7.95
2018-07-10T23:42:10.821Z,7.42
2018-07-10T23:48:05.785Z,7.14
2018-07-10T23:54:00.807Z,7.63
2018-07-10T23:59:55.781Z,7.43
